createdAt,value
2023-02-18T00:00:49.398Z,98918.34
2023-02-18T00:05:57.641Z,98919.75
2023-02-18T00:11:02.535Z,98932.09
2023-02-18T00:16:10.692Z,98934.59
2023-02-18T00:21:20.552Z,98932.38
2023-02-18T00:26:26.146Z,98939.78
2023-02-18T00:31:35.677Z,98939.78
2023-02-18T00:36:43.888Z,98949.84
2023-02-18T00:41:49.387Z,98943.44
2023-02-18T00:46:54.375Z,98947.09
2023-02-18T00:52:01.933Z,98953.91
2023-02-18T00:57:06.936Z,98955.72
2023-02-18T01:02:12.168Z,98973.88
2023-02-18T01:07:19.669Z,98968.06
2023-02-18T01:12:26.891Z,98969.75
2023-02-18T01:17:32.854Z,98974.88
2023-02-18T01:22:40.785Z,98968.31
2023-02-18T01:27:46.003Z,98953.53
2023-02-18T01:32:52.691Z,98955.09
2023-02-18T01:38:00.408Z,98954.34
2023-02-18T01:43:05.751Z,98957.56
2023-02-18T01:48:15.727Z,98956.94
2023-02-18T01:53:30.059Z,98938.78
2023-02-18T01:58:35.951Z,98940.34
2023-02-18T02:03:41.009Z,98953.09
2023-02-18T02:08:51.731Z,98951.28
2023-02-18T02:14:11.564Z,98956.25
2023-02-18T02:19:46.937Z,98955.25
2023-02-18T02:25:16.229Z,98967.47
2023-02-18T02:30:47.328Z,98964.97
2023-02-18T02:36:00.555Z,98947.16
2023-02-18T02:41:17.284Z,98951.63
2023-02-18T02:46:29.941Z,98944.19
2023-02-18T02:51:46.560Z,98945.78
2023-02-18T02:56:53.356Z,98936.97
2023-02-18T03:02:16.178Z,98942.53
2023-02-18T03:07:53.934Z,98946.78
2023-02-18T03:13:07.534Z,98953.09
2023-02-18T03:18:23.111Z,98950.47
2023-02-18T03:23:38.032Z,98956.53
2023-02-18T03:28:44.058Z,98955.19
2023-02-18T03:33:55.324Z,98954.13
2023-02-18T03:39:07.144Z,98941.66
2023-02-18T03:44:14.226Z,98956.44
2023-02-18T03:49:23.375Z,98957.25
2023-02-18T03:54:31.457Z,98950.91
2023-02-18T03:59:36.713Z,98940.13
2023-02-18T04:04:42.005Z,98941.91
2023-02-18T04:09:50.340Z,98951.22
2023-02-18T04:14:55.461Z,98936.19
2023-02-18T04:20:01.680Z,98950.47
2023-02-18T04:25:10.320Z,98965.03
2023-02-18T04:30:18.575Z,98963.16
2023-02-18T04:35:24.095Z,98963.69
2023-02-18T04:40:32.316Z,98956.34
2023-02-18T04:45:37.323Z,98959.25
2023-02-18T04:50:42.339Z,98939.94
2023-02-18T04:55:52.733Z,98945.69
2023-02-18T05:01:02.304Z,98961.59
2023-02-18T05:06:08.189Z,98973.19
2023-02-18T05:11:18.039Z,98970.59
2023-02-18T05:16:22.983Z,98961.22
2023-02-18T05:21:28.120Z,98960.00
2023-02-18T05:26:35.668Z,98950.47
2023-02-18T05:31:41.278Z,98938.06
2023-02-18T05:36:46.483Z,98936.19
2023-02-18T05:41:55.163Z,98932.44
2023-02-18T05:47:00.686Z,98936.97
2023-02-18T05:52:07.360Z,98929.19
2023-02-18T05:57:16.796Z,98924.47
2023-02-18T06:02:22.009Z,98922.91
2023-02-18T06:07:26.947Z,98917.50
2023-02-18T06:12:34.773Z,98917.53
2023-02-18T06:17:40.919Z,98920.34
2023-02-18T06:22:45.922Z,98913.38
2023-02-18T06:27:53.447Z,98914.72
2023-02-18T06:32:59.830Z,98913.59
2023-02-18T06:38:05.240Z,98910.22
2023-02-18T06:43:13.512Z,98912.31
2023-02-18T06:48:18.511Z,98910.00
2023-02-18T06:53:23.457Z,98905.25
2023-02-18T06:58:30.989Z,98890.28
2023-02-18T07:03:38.158Z,98895.78
2023-02-18T07:08:43.198Z,98891.38
2023-02-18T07:13:50.951Z,98882.97
2023-02-18T07:18:55.949Z,98881.91
2023-02-18T07:24:01.040Z,98870.16
2023-02-18T07:29:08.579Z,98855.94
2023-02-18T07:34:13.577Z,98851.13
2023-02-18T07:39:21.278Z,98846.25
2023-02-18T07:44:29.429Z,98844.47
2023-02-18T07:49:35.554Z,98838.69
2023-02-18T07:54:43.551Z,98827.25
2023-02-18T07:59:51.152Z,98825.31
2023-02-18T08:04:56.169Z,98833.16
2023-02-18T08:10:01.238Z,98817.66
2023-02-18T08:15:09.358Z,98813.63
2023-02-18T08:20:15.234Z,98797.84
2023-02-18T08:25:29.536Z,98806.25
2023-02-18T08:30:39.763Z,98815.88
2023-02-18T08:35:49.324Z,98772.47
2023-02-18T08:41:04.171Z,98764.28
2023-02-18T08:46:15.844Z,98742.25
2023-02-18T08:51:26.263Z,98723.72
2023-02-18T08:56:31.874Z,98733.56
2023-02-18T09:01:39.801Z,98749.66
2023-02-18T09:06:44.804Z,98710.28
2023-02-18T09:11:49.831Z,98694.09
2023-02-18T09:17:00.254Z,98705.63
2023-02-18T09:22:05.596Z,98690.78
2023-02-18T09:27:11.450Z,98693.44
2023-02-18T09:32:32.398Z,98679.34
2023-02-18T09:37:40.118Z,98667.16
2023-02-18T09:42:45.492Z,98653.72
2023-02-18T09:47:54.684Z,98640.44
2023-02-18T09:53:02.385Z,98642.88
2023-02-18T09:58:15.102Z,98636.81
2023-02-18T10:03:25.422Z,98629.53
2023-02-18T10:08:37.845Z,98616.28
2023-02-18T10:13:44.374Z,98604.59
2023-02-18T10:18:54.434Z,98588.66
2023-02-18T10:24:03.988Z,98589.13
2023-02-18T10:29:17.337Z,98573.28
2023-02-18T10:34:34.015Z,98567.41
2023-02-18T10:39:57.261Z,98557.16
2023-02-18T10:45:12.458Z,98555.06
2023-02-18T10:50:32.365Z,98541.47
2023-02-18T10:55:39.804Z,98526.22
2023-02-18T11:00:44.964Z,98519.69
2023-02-18T11:05:55.846Z,98496.47
2023-02-18T11:11:12.337Z,98484.34
2023-02-18T11:16:17.719Z,98481.69
2023-02-18T11:21:34.667Z,98460.06
2023-02-18T11:26:42.133Z,98454.31
2023-02-18T11:31:50.467Z,98453.44
2023-02-18T11:36:58.900Z,98448.13
2023-02-18T11:42:07.377Z,98431.75
2023-02-18T11:47:25.354Z,98417.53
2023-02-18T11:52:38.385Z,98414.13
2023-02-18T11:57:52.009Z,98395.97
2023-02-18T12:03:01.421Z,98393.97
2023-02-18T12:08:16.405Z,98396.66
2023-02-18T12:13:29.347Z,98381.03
2023-02-18T12:18:57.512Z,98382.91
2023-02-18T12:24:21.623Z,98392.59
2023-02-18T12:29:49.780Z,98384.13
2023-02-18T12:35:05.867Z,98383.59
2023-02-18T12:40:35.562Z,98372.97
2023-02-18T12:46:04.955Z,98384.03
2023-02-18T12:51:36.375Z,98371.84
2023-02-18T12:57:06.905Z,98383.84
2023-02-18T13:02:26.944Z,98388.25
2023-02-18T13:07:46.600Z,98393.53
2023-02-18T13:13:01.399Z,98367.34
2023-02-18T13:18:12.886Z,98380.91
2023-02-18T13:23:22.233Z,98360.22
2023-02-18T13:28:39.085Z,98358.44
2023-02-18T13:34:02.712Z,98353.31
2023-02-18T13:39:19.446Z,98361.91
2023-02-18T13:45:05.158Z,98357.47
2023-02-18T13:50:28.520Z,98363.00
2023-02-18T13:55:42.472Z,98368.13
2023-02-18T14:00:57.065Z,98362.31
2023-02-18T14:06:02.940Z,98364.97
2023-02-18T14:11:35.881Z,98354.16
2023-02-18T14:17:13.237Z,98377.63
2023-02-18T14:22:39.178Z,98374.88
2023-02-18T14:27:45.656Z,98369.75
2023-02-18T14:32:53.701Z,98366.19
2023-02-18T14:38:18.846Z,98370.69
2023-02-18T14:43:47.297Z,98368.00
2023-02-18T14:49:30.631Z,98377.63
2023-02-18T14:54:39.964Z,98384.06
2023-02-18T14:59:47.626Z,98375.72
2023-02-18T15:04:53.418Z,98391.66
2023-02-18T15:10:01.174Z,98395.06
2023-02-18T15:15:10.737Z,98392.78
2023-02-18T15:20:17.037Z,98411.47
2023-02-18T15:25:30.933Z,98392.81
2023-02-18T15:30:40.795Z,98398.13
2023-02-18T15:35:45.777Z,98402.84
2023-02-18T15:40:59.725Z,98391.59
2023-02-18T15:46:12.976Z,98413.91
2023-02-18T15:51:22.867Z,98413.44
2023-02-18T15:56:34.304Z,98400.34
2023-02-18T16:01:41.067Z,98394.78
2023-02-18T16:06:51.908Z,98421.06
2023-02-18T16:12:03.011Z,98403.28
2023-02-18T16:17:19.573Z,98431.75
2023-02-18T16:22:29.550Z,98413.50
2023-02-18T16:27:40.336Z,98429.38
2023-02-18T16:32:45.599Z,98415.47
2023-02-18T16:37:50.904Z,98444.38
2023-02-18T16:43:00.107Z,98451.13
2023-02-18T16:48:09.298Z,98453.19
2023-02-18T16:53:15.417Z,98452.03
2023-02-18T16:58:23.132Z,98470.19
2023-02-18T17:03:28.225Z,98476.50
2023-02-18T17:08:33.171Z,98487.13
2023-02-18T17:13:42.663Z,98490.06
2023-02-18T17:18:47.692Z,98498.19
2023-02-18T17:23:53.552Z,98493.63
2023-02-18T17:29:03.668Z,98489.13
2023-02-18T17:34:12.442Z,98520.19
2023-02-18T17:39:20.024Z,98523.63
2023-02-18T17:44:29.242Z,98551.66
2023-02-18T17:49:34.384Z,98546.97
2023-02-18T17:54:39.346Z,98535.34
2023-02-18T17:59:47.305Z,98539.09
2023-02-18T18:04:52.586Z,98560.91
2023-02-18T18:09:58.615Z,98580.38
2023-02-18T18:15:15.854Z,98555.03
2023-02-18T18:20:22.016Z,98581.38
2023-02-18T18:25:29.928Z,98585.78
2023-02-18T18:30:40.650Z,98600.97
2023-02-18T18:35:47.711Z,98586.88
2023-02-18T18:40:53.334Z,98586.50
2023-02-18T18:46:02.562Z,98602.59
2023-02-18T18:51:09.355Z,98602.44
2023-02-18T18:56:16.496Z,98604.28
2023-02-18T19:01:27.741Z,98591.81
2023-02-18T19:06:34.045Z,98603.22
2023-02-18T19:11:41.724Z,98602.13
2023-02-18T19:16:49.500Z,98601.94
2023-02-18T19:21:54.515Z,98607.91
2023-02-18T19:26:59.702Z,98620.91
2023-02-18T19:32:07.698Z,98620.53
2023-02-18T19:37:14.756Z,98616.88
2023-02-18T19:42:19.846Z,98616.59
2023-02-18T19:47:29.740Z,98629.16
2023-02-18T19:52:35.046Z,98632.81
2023-02-18T19:57:40.214Z,98640.28
2023-02-18T20:02:48.189Z,98651.19
2023-02-18T20:07:53.365Z,98656.03
2023-02-18T20:13:00.918Z,98648.84
2023-02-18T20:18:09.730Z,98637.91
2023-02-18T20:23:14.991Z,98662.03
2023-02-18T20:28:20.316Z,98649.81
2023-02-18T20:33:27.997Z,98651.00
2023-02-18T20:38:35.700Z,98653.84
2023-02-18T20:43:42.651Z,98664.06
2023-02-18T20:48:51.100Z,98665.16
2023-02-18T20:53:56.277Z,98670.25
2023-02-18T20:59:04.288Z,98666.13
2023-02-18T21:04:13.602Z,98665.56
2023-02-18T21:09:20.088Z,98662.75
2023-02-18T21:14:25.259Z,98674.19
2023-02-18T21:19:33.711Z,98658.16
2023-02-18T21:24:40.136Z,98683.63
2023-02-18T21:29:45.116Z,98670.84
2023-02-18T21:34:55.056Z,98665.38
2023-02-18T21:40:02.520Z,98674.38
2023-02-18T21:45:08.959Z,98668.53
2023-02-18T21:50:17.590Z,98670.53
2023-02-18T21:55:25.150Z,98659.63
2023-02-18T22:00:30.966Z,98664.53
2023-02-18T22:05:43.202Z,98679.41
2023-02-18T22:10:48.237Z,98672.44
2023-02-18T22:15:57.865Z,98671.75
2023-02-18T22:21:09.598Z,98676.63
2023-02-18T22:26:15.251Z,98665.91
2023-02-18T22:31:20.504Z,98677.31
2023-02-18T22:36:29.458Z,98669.84
2023-02-18T22:41:36.118Z,98674.59
2023-02-18T22:46:41.136Z,98669.84
2023-02-18T22:51:48.887Z,98674.19
2023-02-18T22:56:53.894Z,98675.66
2023-02-18T23:02:02.540Z,98676.34
2023-02-18T23:07:10.440Z,98688.53
2023-02-18T23:12:15.623Z,98683.63
2023-02-18T23:17:23.622Z,98687.44
2023-02-18T23:22:33.700Z,98682.22
2023-02-18T23:27:40.746Z,98680.25
2023-02-18T23:32:45.738Z,98671.94
2023-02-18T23:38:08.418Z,98659.94
2023-02-18T23:43:13.340Z,98656.47
2023-02-18T23:48:18.220Z,98665.22
2023-02-18T23:53:28.374Z,98668.06
2023-02-18T23:58:35.796Z,98667.78
